Time;durP1;ratioP1;P1;durP2;ratioP2;P2;SDS_P1;SDS_P2;PMS_P1;PMS_P2;Temp;Humidity;BMP_temperature;BMP_pressure;BME280_temperature;BME280_humidity;BME280_pressure;Samples;Min_cycle;Max_cycle;Signal;HPM_P1;HPM_P2
2024/02/23 00:01:07;;;;;;;5.57;1.00;;;9.90;99.90;;;;;;5040111;28;20021;-82
2024/02/23 00:03:36;;;;;;;2.65;1.10;;;9.80;99.90;;;;;;5034068;28;20477;-81
2024/02/23 00:06:01;;;;;;;2.20;1.00;;;9.80;99.90;;;;;;5032786;28;20040;-82
2024/02/23 00:08:27;;;;;;;3.90;1.02;;;9.70;99.90;;;;;;5036946;28;20017;-81
2024/02/23 00:10:52;;;;;;;4.32;0.98;;;9.70;99.90;;;;;;5036925;28;20429;-82
2024/02/23 00:13:18;;;;;;;4.10;1.50;;;9.60;99.90;;;;;;5028639;28;20281;-81
2024/02/23 00:15:43;;;;;;;5.32;1.17;;;9.60;99.90;;;;;;5039870;28;20035;-82
2024/02/23 00:18:09;;;;;;;5.63;1.00;;;9.60;99.90;;;;;;5032990;28;20048;-81
2024/02/23 00:20:36;;;;;;;2.42;1.05;;;9.60;99.90;;;;;;5040727;28;20044;-81
2024/02/23 00:23:02;;;;;;;6.55;1.23;;;9.50;99.90;;;;;;5040791;28;20036;-81
2024/02/23 00:25:28;;;;;;;4.15;0.90;;;9.50;99.90;;;;;;5042797;28;20041;-81
2024/02/23 00:27:53;;;;;;;2.35;0.95;;;9.40;99.90;;;;;;5042902;28;20029;-81
2024/02/23 00:30:19;;;;;;;7.95;1.23;;;9.40;99.90;;;;;;5039110;28;20064;-81
2024/02/23 00:32:44;;;;;;;3.55;1.20;;;9.40;99.90;;;;;;5034595;28;20036;-81
2024/02/23 00:35:10;;;;;;;4.18;1.00;;;9.40;99.90;;;;;;5029574;28;20021;-81
2024/02/23 00:37:35;;;;;;;2.47;0.77;;;9.30;99.90;;;;;;5039859;28;20021;-81
2024/02/23 00:40:05;;;;;;;6.95;1.70;;;9.30;99.90;;;;;;5040078;28;20053;-81
2024/02/23 00:42:31;;;;;;;3.70;1.08;;;9.20;99.90;;;;;;5036240;28;20018;-81
2024/02/23 00:44:56;;;;;;;4.93;1.25;;;9.30;99.90;;;;;;5036230;28;20017;-80
2024/02/23 00:47:22;;;;;;;3.45;0.90;;;9.30;99.90;;;;;;5039186;28;20060;-80
2024/02/23 00:49:48;;;;;;;4.03;1.00;;;9.30;99.90;;;;;;5037677;28;20021;-81
2024/02/23 00:52:14;;;;;;;5.90;0.88;;;9.30;99.90;;;;;;5020503;28;20230;-81
2024/02/23 00:54:40;;;;;;;5.57;1.20;;;9.20;99.90;;;;;;5039566;28;20517;-81
2024/02/23 00:57:06;;;;;;;1.77;1.00;;;9.20;99.90;;;;;;5038971;28;20401;-81
2024/02/23 00:59:32;;;;;;;5.13;1.17;;;9.20;99.90;;;;;;5039265;28;20033;-81
2024/02/23 01:01:58;;;;;;;5.25;1.08;;;9.20;99.90;;;;;;5032749;28;20107;-81
2024/02/23 01:04:23;;;;;;;5.75;1.30;;;9.10;99.90;;;;;;5037973;28;20029;-81
2024/02/23 01:06:49;;;;;;;4.07;1.00;;;9.10;99.90;;;;;;5039361;28;20017;-81
2024/02/23 01:09:16;;;;;;;4.40;0.90;;;9.10;99.90;;;;;;5047994;28;20028;-81
2024/02/23 01:11:42;;;;;;;4.82;1.15;;;9.10;99.90;;;;;;5039410;28;20032;-81
2024/02/23 01:14:07;;;;;;;2.97;0.70;;;9.20;99.90;;;;;;5039752;28;20028;-80
2024/02/23 01:16:33;;;;;;;5.88;1.02;;;9.20;99.90;;;;;;5046880;28;20036;-81
2024/02/23 01:18:59;;;;;;;2.70;0.90;;;9.20;99.90;;;;;;5040670;28;20026;-80
2024/02/23 01:21:24;;;;;;;3.35;1.30;;;9.30;99.90;;;;;;5028947;28;20501;-81
2024/02/23 01:23:50;;;;;;;5.43;1.27;;;9.40;99.90;;;;;;5033343;28;20022;-81
2024/02/23 01:26:15;;;;;;;1.60;0.70;;;9.30;99.90;;;;;;5035176;28;20036;-82
2024/02/23 01:28:41;;;;;;;8.93;0.88;;;9.30;99.90;;;;;;5031589;28;20025;-81
2024/02/23 01:31:10;;;;;;;7.35;1.52;;;9.40;99.90;;;;;;5039301;28;20021;-81
2024/02/23 01:33:37;;;;;;;2.03;0.90;;;9.40;99.90;;;;;;5039467;28;20151;-81
2024/02/23 01:36:04;;;;;;;2.65;0.60;;;9.40;99.90;;;;;;5038823;28;20052;-82
2024/02/23 01:38:32;;;;;;;3.10;0.60;;;9.40;99.90;;;;;;5031121;28;20234;-82
2024/02/23 01:40:58;;;;;;;0.85;0.52;;;9.40;99.90;;;;;;5040208;28;20031;-82
2024/02/23 01:43:24;;;;;;;5.45;0.88;;;9.40;99.90;;;;;;5028929;28;20029;-82
2024/02/23 01:45:49;;;;;;;4.15;0.90;;;9.40;99.90;;;;;;5032209;28;20091;-82
2024/02/23 01:48:16;;;;;;;4.85;0.50;;;9.40;99.90;;;;;;5038453;28;20025;-81
2024/02/23 01:50:42;;;;;;;5.25;0.75;;;9.40;99.90;;;;;;5027133;28;20045;-82
2024/02/23 01:53:09;;;;;;;1.50;0.70;;;9.40;99.90;;;;;;5034576;28;20082;-83
2024/02/23 01:55:35;;;;;;;2.78;0.40;;;9.40;99.90;;;;;;5036591;28;20076;-83
2024/02/23 01:58:01;;;;;;;3.03;0.70;;;9.40;99.90;;;;;;5033628;28;20061;-83
2024/02/23 02:00:27;;;;;;;1.95;0.60;;;9.40;99.90;;;;;;5028546;28;20025;-82
2024/02/23 02:02:52;;;;;;;0.88;0.50;;;9.30;99.90;;;;;;5032290;28;20094;-82
2024/02/23 02:05:18;;;;;;;1.55;0.40;;;9.30;99.90;;;;;;5029776;28;20392;-81
2024/02/23 02:07:45;;;;;;;3.15;1.33;;;9.20;99.90;;;;;;5030352;28;20459;-82
2024/02/23 02:10:11;;;;;;;1.27;0.45;;;9.20;99.90;;;;;;5028600;28;20025;-82
2024/02/23 02:12:37;;;;;;;0.57;0.55;;;9.10;99.90;;;;;;5026455;28;20025;-82
2024/02/23 02:15:04;;;;;;;1.98;0.47;;;9.00;99.90;;;;;;5034387;28;20036;-82
2024/02/23 02:17:30;;;;;;;2.85;0.43;;;9.00;99.90;;;;;;5037210;28;20030;-81
2024/02/23 02:19:58;;;;;;;4.13;0.50;;;8.90;99.90;;;;;;5016482;28;20671;-81
2024/02/23 02:22:24;;;;;;;0.80;0.47;;;8.80;99.90;;;;;;5032162;28;20025;-82
2024/02/23 02:24:50;;;;;;;0.30;0.30;;;8.70;99.90;;;;;;5032312;28;20025;-82
2024/02/23 02:27:15;;;;;;;0.93;0.50;;;8.60;99.90;;;;;;5016246;28;20169;-81
2024/02/23 02:29:41;;;;;;;0.68;0.50;;;8.60;99.90;;;;;;5032542;28;20029;-81
2024/02/23 02:32:07;;;;;;;1.25;0.70;;;8.50;99.90;;;;;;5032437;28;20128;-82
2024/02/23 02:34:32;;;;;;;0.55;0.43;;;8.40;99.90;;;;;;5032050;28;20391;-82
2024/02/23 02:36:58;;;;;;;0.73;0.30;;;8.40;99.90;;;;;;5032252;28;20242;-82
2024/02/23 02:39:24;;;;;;;0.55;0.50;;;8.40;99.90;;;;;;5039911;28;20065;-81
2024/02/23 02:41:50;;;;;;;2.85;0.70;;;8.30;99.90;;;;;;5045356;28;20030;-81
2024/02/23 02:44:15;;;;;;;1.00;0.52;;;8.30;99.90;;;;;;5021751;28;20348;-82
2024/02/23 02:46:41;;;;;;;0.57;0.57;;;8.20;99.90;;;;;;5005123;28;20032;-82
2024/02/23 02:49:07;;;;;;;1.38;0.73;;;8.10;99.90;;;;;;5020614;28;20136;-82
2024/02/23 02:51:34;;;;;;;0.75;0.50;;;8.00;99.90;;;;;;5047710;28;20053;-83
2024/02/23 02:53:59;;;;;;;2.25;0.70;;;8.00;99.90;;;;;;5013715;28;20033;-81
2024/02/23 02:56:25;;;;;;;2.15;1.10;;;7.90;99.90;;;;;;5030317;28;20017;-81
2024/02/23 02:58:50;;;;;;;1.65;0.85;;;7.80;99.90;;;;;;5050003;28;20033;-82
2024/02/23 03:01:16;;;;;;;1.20;0.60;;;7.70;99.90;;;;;;5050011;28;20033;-82
2024/02/23 03:03:42;;;;;;;2.53;0.65;;;7.60;99.90;;;;;;5049557;28;20086;-81
2024/02/23 03:06:07;;;;;;;0.52;0.30;;;7.50;99.90;;;;;;5049112;28;20025;-82
2024/02/23 03:08:33;;;;;;;0.55;0.30;;;7.40;99.90;;;;;;5049589;28;20025;-82
2024/02/23 03:10:59;;;;;;;1.85;0.43;;;7.40;99.90;;;;;;5049730;28;20437;-83
2024/02/23 03:13:25;;;;;;;0.25;0.25;;;7.30;99.90;;;;;;5033082;28;20036;-83
2024/02/23 03:15:50;;;;;;;0.30;0.30;;;7.30;99.90;;;;;;5049125;28;20037;-83
2024/02/23 03:18:16;;;;;;;0.35;0.28;;;7.20;99.90;;;;;;5033996;28;20481;-83
2024/02/23 03:20:42;;;;;;;0.32;0.20;;;7.10;99.90;;;;;;5025164;28;20540;-83
2024/02/23 03:23:08;;;;;;;0.50;0.32;;;7.10;99.90;;;;;;5046416;28;20031;-83
2024/02/23 03:25:33;;;;;;;0.35;0.30;;;7.10;99.90;;;;;;5035779;28;20030;-83
2024/02/23 03:27:59;;;;;;;0.30;0.30;;;7.00;99.90;;;;;;5015736;28;20116;-82
2024/02/23 03:30:24;;;;;;;0.30;0.30;;;6.90;99.90;;;;;;5037880;28;20022;-83
2024/02/23 03:32:50;;;;;;;0.40;0.40;;;6.90;99.90;;;;;;5041254;28;20643;-82
2024/02/23 03:35:15;;;;;;;2.15;0.30;;;6.90;99.90;;;;;;5036953;28;20017;-82
2024/02/23 03:37:41;;;;;;;0.80;0.60;;;6.80;99.90;;;;;;5037298;28;20036;-81
2024/02/23 03:40:08;;;;;;;2.78;0.40;;;6.80;99.90;;;;;;5045674;28;20025;-80
2024/02/23 03:42:33;;;;;;;0.60;0.60;;;6.90;99.90;;;;;;5042126;28;20033;-81
2024/02/23 03:44:59;;;;;;;0.30;0.25;;;6.80;99.90;;;;;;5045341;28;20021;-81
2024/02/23 03:47:24;;;;;;;0.30;0.30;;;6.80;99.90;;;;;;5034871;28;20117;-81
2024/02/23 03:49:50;;;;;;;0.55;0.47;;;6.80;99.90;;;;;;5024317;28;20014;-82
2024/02/23 03:52:15;;;;;;;0.88;0.50;;;6.80;99.90;;;;;;5016691;28;20092;-81
2024/02/23 03:54:41;;;;;;;0.32;0.30;;;6.80;99.90;;;;;;5042874;28;20347;-82
2024/02/23 03:57:06;;;;;;;0.95;0.43;;;6.80;99.90;;;;;;5023729;28;20048;-82
2024/02/23 03:59:32;;;;;;;0.73;0.47;;;6.80;99.90;;;;;;5022411;28;20103;-81
2024/02/23 04:01:57;;;;;;;0.30;0.30;;;6.80;99.90;;;;;;5045588;28;20033;-81
2024/02/23 04:04:23;;;;;;;2.15;0.63;;;6.70;99.90;;;;;;5045268;28;20049;-82
2024/02/23 04:06:49;;;;;;;2.58;0.60;;;6.70;99.90;;;;;;5010627;28;20026;-81
2024/02/23 04:09:14;;;;;;;1.65;0.57;;;6.70;99.90;;;;;;5016366;28;20017;-82
2024/02/23 04:11:40;;;;;;;1.08;0.60;;;6.70;99.90;;;;;;5043164;28;20022;-81
2024/02/23 04:14:05;;;;;;;1.20;0.60;;;6.70;99.90;;;;;;5009196;28;20129;-81
2024/02/23 04:16:31;;;;;;;0.98;0.60;;;6.80;99.90;;;;;;5018101;28;20042;-81
2024/02/23 04:18:57;;;;;;;0.85;0.60;;;6.80;99.90;;;;;;5021862;28;20021;-82
2024/02/23 04:21:23;;;;;;;1.75;0.70;;;6.70;99.90;;;;;;5013725;28;20506;-82
2024/02/23 04:23:49;;;;;;;0.70;0.60;;;6.70;99.90;;;;;;5037216;28;20033;-81
2024/02/23 04:26:14;;;;;;;3.60;0.80;;;6.70;99.90;;;;;;5045272;28;20020;-81
2024/02/23 04:28:41;;;;;;;5.45;1.10;;;6.70;99.90;;;;;;5044855;28;20026;-82
2024/02/23 04:31:07;;;;;;;2.97;0.95;;;6.70;99.90;;;;;;5044975;28;20014;-82
2024/02/23 04:33:35;;;;;;;4.13;0.90;;;6.80;99.90;;;;;;5044351;28;20148;-82
2024/02/23 04:36:00;;;;;;;1.20;0.60;;;6.80;99.90;;;;;;5044787;28;20024;-81
2024/02/23 04:38:26;;;;;;;1.65;0.65;;;6.80;99.90;;;;;;5045009;28;20382;-81
2024/02/23 04:40:51;;;;;;;2.35;0.80;;;6.80;99.90;;;;;;5009888;28;20026;-82
2024/02/23 04:43:17;;;;;;;3.92;0.82;;;6.80;99.90;;;;;;5008691;28;20032;-81
2024/02/23 04:45:42;;;;;;;4.65;0.95;;;6.80;99.90;;;;;;5010487;28;20034;-81
2024/02/23 04:48:08;;;;;;;3.30;0.70;;;6.70;99.90;;;;;;5022646;28;20018;-81
2024/02/23 04:50:33;;;;;;;1.50;0.70;;;6.80;99.90;;;;;;5025752;28;20017;-81
2024/02/23 04:52:59;;;;;;;1.08;0.70;;;6.80;99.90;;;;;;5044834;28;20106;-81
2024/02/23 04:55:24;;;;;;;1.88;0.80;;;6.70;99.90;;;;;;5044633;28;20035;-81
2024/02/23 04:57:50;;;;;;;3.08;0.88;;;6.70;99.90;;;;;;5026170;28;20022;-81
2024/02/23 05:00:16;;;;;;;1.35;0.90;;;6.70;99.90;;;;;;5009628;28;20032;-81
2024/02/23 05:02:41;;;;;;;5.10;1.17;;;6.70;99.90;;;;;;5009892;28;20026;-81
2024/02/23 05:05:07;;;;;;;3.75;1.25;;;6.70;99.90;;;;;;5035913;28;20417;-81
2024/02/23 05:07:33;;;;;;;3.92;1.08;;;6.70;99.90;;;;;;5020809;28;20430;-82
2024/02/23 05:09:59;;;;;;;3.22;1.08;;;6.60;99.90;;;;;;5039808;28;20018;-82
2024/02/23 05:12:25;;;;;;;1.98;1.20;;;6.60;99.90;;;;;;5009408;28;20076;-81
2024/02/23 05:14:51;;;;;;;1.05;0.70;;;6.60;99.90;;;;;;5015840;28;20026;-80
2024/02/23 05:17:17;;;;;;;4.47;1.10;;;6.70;99.90;;;;;;5014855;28;20091;-82
2024/02/23 05:19:42;;;;;;;3.83;1.42;;;6.70;99.90;;;;;;5032677;28;20248;-82
2024/02/23 05:22:08;;;;;;;4.38;1.50;;;6.70;99.90;;;;;;5007659;28;20534;-82
2024/02/23 05:24:33;;;;;;;2.35;1.00;;;6.70;99.90;;;;;;5023194;28;20091;-82
2024/02/23 05:27:02;;;;;;;6.07;1.08;;;6.70;99.90;;;;;;5007564;28;20014;-82
2024/02/23 05:29:27;;;;;;;2.47;1.08;;;6.70;99.90;;;;;;5040670;28;20017;-82
2024/02/23 05:31:53;;;;;;;2.10;0.90;;;6.70;99.90;;;;;;5004356;28;20034;-82
2024/02/23 05:34:19;;;;;;;3.13;1.20;;;6.70;99.90;;;;;;5012281;28;20105;-81
2024/02/23 05:36:49;;;;;;;1.55;0.82;;;6.60;99.90;;;;;;5015308;28;20401;-82
2024/02/23 05:39:18;;;;;;;;;;;6.70;99.90;;;;;;5016342;28;20025;-81
2024/02/23 05:41:44;;;;;;;3.75;1.08;;;6.70;99.90;;;;;;5017650;28;19909;-82
2024/02/23 05:44:10;;;;;;;1.45;0.90;;;6.70;99.90;;;;;;5014296;28;20014;-81
2024/02/23 05:46:36;;;;;;;4.88;0.98;;;6.70;99.90;;;;;;5009143;28;20041;-83
2024/02/23 05:49:03;;;;;;;1.63;0.80;;;6.70;99.90;;;;;;5043821;28;20022;-83
2024/02/23 05:51:29;;;;;;;2.45;0.80;;;6.70;99.90;;;;;;5043542;28;20025;-83
2024/02/23 05:53:55;;;;;;;1.42;0.82;;;6.70;99.90;;;;;;5040199;28;20032;-83
2024/02/23 05:56:21;;;;;;;0.93;0.75;;;6.70;99.90;;;;;;5025873;28;20037;-82
2024/02/23 05:58:46;;;;;;;1.73;0.82;;;6.70;99.90;;;;;;5011116;28;20088;-83
2024/02/23 06:01:12;;;;;;;2.08;1.05;;;6.60;99.90;;;;;;5026136;28;20475;-82
2024/02/23 06:03:38;;;;;;;4.25;1.00;;;6.60;99.90;;;;;;5026851;28;20030;-81
2024/02/23 06:06:08;;;;;;;1.17;0.68;;;6.60;99.90;;;;;;5011188;28;20184;-82
2024/02/23 06:08:33;;;;;;;1.35;0.95;;;6.60;99.90;;;;;;5033866;28;20036;-81
2024/02/23 06:10:59;;;;;;;1.08;0.73;;;6.60;99.90;;;;;;5020114;28;20064;-82
2024/02/23 06:13:25;;;;;;;4.63;1.20;;;6.50;99.90;;;;;;5043435;28;20022;-82
2024/02/23 06:15:51;;;;;;;2.13;0.90;;;6.50;99.90;;;;;;5011311;28;20525;-81
2024/02/23 06:18:16;;;;;;;2.30;0.77;;;6.60;99.90;;;;;;5043497;28;20386;-82
2024/02/23 06:20:42;;;;;;;2.97;1.15;;;6.50;99.90;;;;;;5025670;28;20021;-80
2024/02/23 06:23:07;;;;;;;4.13;0.88;;;6.60;99.90;;;;;;5011882;28;20025;-80
2024/02/23 06:25:33;;;;;;;3.97;0.95;;;6.60;99.90;;;;;;5043250;28;20437;-79
2024/02/23 06:27:58;;;;;;;1.63;1.02;;;6.60;99.90;;;;;;5011508;28;20022;-83
2024/02/23 06:30:24;;;;;;;3.08;0.98;;;6.60;99.90;;;;;;5033800;28;20382;-83
2024/02/23 06:32:49;;;;;;;1.33;0.73;;;6.60;99.90;;;;;;5017891;28;20159;-85
2024/02/23 06:35:15;;;;;;;4.53;1.10;;;6.60;99.90;;;;;;5006723;28;20055;-86
2024/02/23 06:37:46;;;;;;;8.60;1.25;;;6.60;99.90;;;;;;5008700;28;20034;-82
2024/02/23 06:40:12;;;;;;;1.83;0.80;;;6.70;99.90;;;;;;5006423;28;20438;-82
2024/02/23 06:42:38;;;;;;;5.32;0.95;;;6.70;99.90;;;;;;5014316;28;20358;-82
2024/02/23 06:45:04;;;;;;;1.83;0.70;;;6.70;99.90;;;;;;5027466;28;20017;-81
2024/02/23 06:47:29;;;;;;;3.65;0.90;;;6.70;99.90;;;;;;5043617;28;20021;-82
2024/02/23 06:49:55;;;;;;;2.05;1.17;;;6.70;99.90;;;;;;5019130;28;20017;-81
2024/02/23 06:52:21;;;;;;;4.15;0.95;;;6.80;99.90;;;;;;5034534;28;20024;-82
2024/02/23 06:54:46;;;;;;;2.10;0.80;;;6.70;99.90;;;;;;5010874;28;20403;-81
2024/02/23 06:57:12;;;;;;;1.35;0.80;;;6.80;99.90;;;;;;5045644;28;20025;-82
2024/02/23 06:59:37;;;;;;;1.98;1.05;;;6.80;99.90;;;;;;5015670;28;20509;-81
2024/02/23 07:02:04;;;;;;;2.88;0.80;;;6.80;99.90;;;;;;5009899;28;20026;-81
2024/02/23 07:04:29;;;;;;;4.90;1.13;;;6.80;99.90;;;;;;5012626;28;20029;-81
2024/02/23 07:06:55;;;;;;;7.55;1.17;;;6.80;99.90;;;;;;5017815;28;20030;-80
2024/02/23 07:09:21;;;;;;;2.78;1.10;;;6.90;99.90;;;;;;5025907;28;20104;-81
2024/02/23 07:11:46;;;;;;;2.97;0.90;;;6.90;99.90;;;;;;5037895;28;20049;-81
2024/02/23 07:14:14;;;;;;;4.82;0.90;;;7.00;99.90;;;;;;5031157;28;20013;-80
2024/02/23 07:16:40;;;;;;;1.63;0.90;;;7.00;99.90;;;;;;5021218;28;20025;-81
2024/02/23 07:19:07;;;;;;;3.05;0.90;;;7.00;99.90;;;;;;5015335;28;20024;-81
2024/02/23 07:21:32;;;;;;;4.82;1.70;;;7.00;99.90;;;;;;5021417;28;20028;-81
2024/02/23 07:23:59;;;;;;;7.18;1.17;;;7.00;99.90;;;;;;5043157;28;20018;-82
2024/02/23 07:26:24;;;;;;;5.57;1.17;;;7.00;99.90;;;;;;5024308;28;20182;-81
2024/02/23 07:28:50;;;;;;;1.67;1.15;;;7.10;99.90;;;;;;5044427;28;20014;-81
2024/02/23 07:31:15;;;;;;;3.05;0.88;;;7.10;99.90;;;;;;5011220;28;20053;-81
2024/02/23 07:33:43;;;;;;;1.42;0.85;;;7.10;99.90;;;;;;5017835;28;20032;-82
2024/02/23 07:36:16;;;;;;;5.60;1.00;;;7.10;99.90;;;;;;5013794;28;20025;-82
2024/02/23 07:38:43;;;;;;;3.22;0.93;;;7.10;99.90;;;;;;5030819;28;20028;-81
2024/02/23 07:41:09;;;;;;;2.95;1.13;;;7.10;99.90;;;;;;5045844;28;20017;-82
2024/02/23 07:43:35;;;;;;;4.40;0.90;;;7.10;99.90;;;;;;5046119;28;20028;-82
2024/02/23 07:46:02;;;;;;;3.63;0.68;;;7.10;99.90;;;;;;5042557;28;20430;-81
2024/02/23 07:48:28;;;;;;;3.15;0.80;;;7.10;99.90;;;;;;5017920;28;20101;-81
2024/02/23 07:50:53;;;;;;;2.55;0.95;;;7.20;99.90;;;;;;5019495;28;20128;-81
2024/02/23 07:53:19;;;;;;;1.73;0.85;;;7.20;99.90;;;;;;5040103;28;20526;-82
2024/02/23 07:55:44;;;;;;;4.47;0.90;;;7.30;99.90;;;;;;5027644;28;20025;-81
2024/02/23 07:58:10;;;;;;;3.10;0.77;;;7.30;99.90;;;;;;5045790;28;20022;-82
2024/02/23 08:00:38;;;;;;;6.38;0.95;;;7.30;99.90;;;;;;5045949;28;20029;-81
2024/02/23 08:03:04;;;;;;;4.20;1.20;;;7.30;99.90;;;;;;5037337;28;20021;-81
2024/02/23 08:05:29;;;;;;;3.50;1.05;;;7.40;99.90;;;;;;5045555;28;20024;-81
2024/02/23 08:07:55;;;;;;;6.95;0.95;;;7.40;99.90;;;;;;5042480;28;20028;-82
2024/02/23 08:10:21;;;;;;;3.45;1.17;;;7.50;99.90;;;;;;5014725;28;20064;-82
2024/02/23 08:12:47;;;;;;;2.83;1.15;;;7.50;99.90;;;;;;5045195;28;20033;-81
2024/02/23 08:15:12;;;;;;;3.55;0.90;;;7.60;99.90;;;;;;5045271;28;20029;-81
2024/02/23 08:17:38;;;;;;;1.27;0.80;;;7.70;99.90;;;;;;5038118;28;20025;-81
2024/02/23 08:20:04;;;;;;;1.83;0.80;;;7.80;99.90;;;;;;5021782;28;20021;-82
2024/02/23 08:22:31;;;;;;;2.88;0.98;;;7.90;99.90;;;;;;5045244;28;20430;-80
2024/02/23 08:24:56;;;;;;;3.58;0.95;;;8.00;99.90;;;;;;5044627;28;20022;-82
2024/02/23 08:27:22;;;;;;;1.27;0.73;;;8.20;99.90;;;;;;5039239;28;20033;-81
2024/02/23 08:29:47;;;;;;;5.28;1.13;;;8.30;99.90;;;;;;5033200;28;20022;-81
2024/02/23 08:32:13;;;;;;;2.30;0.93;;;8.30;99.90;;;;;;5037229;28;20167;-82
2024/02/23 08:34:39;;;;;;;4.20;1.70;;;8.40;99.90;;;;;;5029217;28;20086;-82
2024/02/23 08:37:04;;;;;;;8.38;1.25;;;8.40;99.90;;;;;;5029415;28;20030;-81
2024/02/23 08:39:30;;;;;;;2.88;1.35;;;8.50;99.90;;;;;;5044755;28;20021;-81
2024/02/23 08:41:56;;;;;;;12.07;3.08;;;8.60;99.90;;;;;;5036479;28;20116;-82
2024/02/23 08:44:21;;;;;;;3.55;1.15;;;8.60;99.90;;;;;;5044982;28;20020;-82
2024/02/23 08:46:48;;;;;;;3.05;1.13;;;8.80;99.90;;;;;;5044024;28;20099;-81
2024/02/23 08:49:14;;;;;;;5.32;1.88;;;8.90;99.30;;;;;;5021710;28;20030;-81
2024/02/23 08:51:40;;;;;;;3.75;1.42;;;8.90;99.80;;;;;;5044665;28;20037;-81
2024/02/23 08:54:06;;;;;;;4.72;1.00;;;9.00;98.90;;;;;;5035523;28;20030;-82
2024/02/23 08:56:36;;;;;;;5.57;1.20;;;9.00;98.30;;;;;;5026985;28;20014;-82
2024/02/23 08:59:02;;;;;;;4.55;1.60;;;9.00;97.50;;;;;;5024878;28;20032;-81
2024/02/23 09:01:27;;;;;;;12.13;1.40;;;9.20;98.30;;;;;;5007552;28;20121;-82
2024/02/23 09:03:54;;;;;;;5.13;1.13;;;9.30;98.20;;;;;;5041948;28;20121;-82
2024/02/23 09:06:19;;;;;;;5.10;1.92;;;9.40;96.50;;;;;;5035829;28;20264;-82
2024/02/23 09:08:45;;;;;;;2.30;0.93;;;9.40;97.00;;;;;;5035730;28;20469;-82
2024/02/23 09:11:13;;;;;;;4.45;1.50;;;9.30;97.00;;;;;;5016347;28;20029;-82
2024/02/23 09:13:38;;;;;;;4.60;1.42;;;9.00;96.90;;;;;;5014872;28;20018;-82
2024/02/23 09:16:04;;;;;;;7.15;1.10;;;9.00;97.00;;;;;;5015283;28;20037;-82
2024/02/23 09:18:30;;;;;;;3.20;1.15;;;9.00;97.00;;;;;;5015487;28;20029;-82
2024/02/23 09:20:55;;;;;;;1.55;0.90;;;9.00;96.80;;;;;;5009144;28;20030;-82
2024/02/23 09:23:21;;;;;;;3.55;0.98;;;9.10;96.70;;;;;;5039535;28;20018;-82
2024/02/23 09:25:46;;;;;;;4.68;1.17;;;9.30;96.70;;;;;;5015619;28;20483;-82
2024/02/23 09:28:12;;;;;;;5.20;1.23;;;9.40;96.40;;;;;;5011612;28;20025;-82
2024/02/23 09:30:38;;;;;;;3.25;1.05;;;9.70;95.10;;;;;;5044032;28;20086;-82
2024/02/23 09:33:04;;;;;;;4.22;1.52;;;10.20;94.00;;;;;;5025382;28;20033;-82
2024/02/23 09:35:29;;;;;;;2.80;1.00;;;11.20;92.90;;;;;;5007145;28;20033;-82
2024/02/23 09:37:55;;;;;;;4.18;1.35;;;12.20;91.90;;;;;;5008582;28;20022;-82
2024/02/23 09:40:20;;;;;;;2.40;0.90;;;13.40;87.30;;;;;;5029146;28;20024;-82
2024/02/23 09:42:56;;;;;;;4.10;1.10;;;13.50;82.50;;;;;;5043882;28;20076;-82
2024/02/23 09:45:22;;;;;;;5.60;1.33;;;13.20;82.90;;;;;;5038879;28;20018;-82
2024/02/23 09:47:48;;;;;;;4.07;1.08;;;13.30;83.60;;;;;;5015993;28;20018;-82
2024/02/23 09:50:15;;;;;;;3.55;1.00;;;13.40;82.30;;;;;;5044139;28;20108;-82
2024/02/23 09:52:41;;;;;;;2.17;1.08;;;13.90;81.80;;;;;;5044124;28;20025;-82
2024/02/23 09:55:07;;;;;;;3.40;1.17;;;14.60;80.60;;;;;;5035395;28;20095;-82
2024/02/23 09:57:33;;;;;;;3.45;1.02;;;15.30;75.20;;;;;;5037779;28;20017;-82
2024/02/23 09:59:58;;;;;;;2.60;1.10;;;16.00;73.30;;;;;;5040768;28;20075;-82
2024/02/23 10:02:25;;;;;;;1.75;0.95;;;16.30;72.60;;;;;;5013510;28;20045;-82
2024/02/23 10:04:54;;;;;;;1.45;0.82;;;16.70;72.60;;;;;;5027366;28;20021;-82
2024/02/23 10:07:19;;;;;;;3.80;1.13;;;17.90;67.10;;;;;;5015492;28;20022;-82
2024/02/23 10:09:45;;;;;;;2.53;0.82;;;19.00;69.00;;;;;;5022900;28;20356;-82
2024/02/23 10:12:10;;;;;;;3.45;1.00;;;18.20;65.70;;;;;;5031678;28;20124;-82
2024/02/23 10:14:36;;;;;;;2.45;0.80;;;17.70;65.70;;;;;;5015259;28;20018;-81
2024/02/23 10:17:02;;;;;;;4.75;1.30;;;17.90;66.20;;;;;;5017443;28;20118;-82
2024/02/23 10:19:29;;;;;;;3.15;1.42;;;17.70;67.10;;;;;;5043149;28;20217;-82
2024/02/23 10:21:55;;;;;;;4.43;1.10;;;16.40;67.50;;;;;;5017031;28;20370;-82
2024/02/23 10:24:22;;;;;;;3.38;1.17;;;16.40;67.70;;;;;;5010084;28;20116;-82
2024/02/23 10:26:48;;;;;;;2.25;0.85;;;17.10;67.40;;;;;;5043303;28;20048;-82
2024/02/23 10:29:14;;;;;;;3.67;0.90;;;17.00;66.50;;;;;;5034116;28;20490;-82
2024/02/23 10:31:42;;;;;;;2.38;0.90;;;17.30;66.70;;;;;;5020825;28;20060;-82
2024/02/23 10:34:11;;;;;;;3.70;1.08;;;18.50;65.50;;;;;;5021716;28;20041;-82
2024/02/23 10:36:41;;;;;;;1.60;0.80;;;18.70;64.70;;;;;;5012428;28;20010;-82
2024/02/23 10:39:09;;;;;;;3.47;0.93;;;19.30;63.20;;;;;;5018999;28;20479;-82
2024/02/23 10:41:39;;;;;;;3.15;0.90;;;20.30;61.40;;;;;;5041607;28;20025;-82
2024/02/23 10:44:04;;;;;;;1.63;0.75;;;20.30;59.90;;;;;;5047285;28;20029;-83
2024/02/23 10:46:33;;;;;;;1.83;0.80;;;21.20;59.20;;;;;;5017938;28;20106;-82
2024/02/23 10:49:01;;;;;;;2.42;0.95;;;21.10;57.30;;;;;;5028267;28;20639;-83
2024/02/23 10:51:27;;;;;;;2.38;0.80;;;21.60;58.40;;;;;;5023457;28;20021;-83
2024/02/23 10:53:53;;;;;;;3.22;1.10;;;21.90;54.80;;;;;;5031041;28;20037;-83
2024/02/23 10:56:19;;;;;;;3.15;0.90;;;22.30;54.50;;;;;;5019685;28;20089;-84
2024/02/23 10:58:45;;;;;;;5.00;1.40;;;21.60;56.30;;;;;;5042604;28;20072;-83
2024/02/23 11:01:12;;;;;;;2.28;0.70;;;20.70;56.00;;;;;;5022644;28;20057;-83
2024/02/23 11:03:41;;;;;;;2.97;0.85;;;20.70;55.60;;;;;;5032813;28;20117;-83
2024/02/23 11:06:07;;;;;;;6.13;1.30;;;20.80;55.60;;;;;;5026683;28;20478;-83
2024/02/23 11:08:34;;;;;;;4.50;1.50;;;20.30;55.80;;;;;;5025730;28;20017;-83
2024/02/23 11:11:08;;;;;;;2.20;0.85;;;20.10;58.80;;;;;;5042570;28;20025;-83
2024/02/23 11:13:37;;;;;;;3.30;1.08;;;20.70;58.30;;;;;;5018267;28;20032;-83
2024/02/23 11:16:08;;;;;;;2.47;0.88;;;20.00;56.20;;;;;;5010662;28;20434;-82
2024/02/23 11:18:39;;;;;;;4.03;0.90;;;19.20;57.60;;;;;;5036095;28;20458;-83
2024/02/23 11:21:08;;;;;;;2.25;0.85;;;20.00;56.60;;;;;;5016590;28;20261;-83
2024/02/23 11:23:48;;;;;;;6.65;1.10;;;19.60;57.70;;;;;;5022110;28;20028;-83
2024/02/23 11:26:14;;;;;;;2.70;0.70;;;20.20;55.60;;;;;;5029995;28;20055;-82
2024/02/23 11:28:53;;;;;;;3.80;1.15;;;20.10;56.80;;;;;;5010651;28;20320;-83
2024/02/23 11:31:28;;;;;;;3.05;1.15;;;20.00;56.80;;;;;;5018789;28;20044;-82
2024/02/23 11:33:58;;;;;;;4.88;0.95;;;20.00;57.40;;;;;;5043101;28;20065;-83
2024/02/23 11:36:33;;;;;;;1.45;0.75;;;18.80;58.70;;;;;;5046516;28;20021;-83
2024/02/23 11:39:00;;;;;;;1.02;0.77;;;18.20;58.10;;;;;;5014828;28;20030;-82
2024/02/23 11:41:27;;;;;;;3.50;1.10;;;17.30;60.90;;;;;;5046091;28;20020;-82
2024/02/23 11:43:53;;;;;;;2.55;0.90;;;16.90;61.60;;;;;;5020952;28;20486;-82
2024/02/23 11:46:19;;;;;;;1.60;0.70;;;16.90;62.50;;;;;;5011001;28;20359;-82
2024/02/23 11:48:46;;;;;;;2.85;0.95;;;16.90;62.70;;;;;;5034944;28;20030;-82
2024/02/23 11:51:14;;;;;;;2.17;1.02;;;16.20;62.10;;;;;;5019770;28;20054;-82
2024/02/23 11:53:40;;;;;;;2.35;0.98;;;15.40;65.00;;;;;;5010484;28;20040;-82
2024/02/23 11:56:06;;;;;;;4.25;0.90;;;14.60;65.60;;;;;;5013297;28;20017;-82
2024/02/23 11:58:35;;;;;;;2.95;1.00;;;14.30;67.50;;;;;;5014956;28;20056;-83
2024/02/23 12:01:02;;;;;;;3.83;0.85;;;13.60;68.70;;;;;;5028901;28;20080;-82
2024/02/23 12:03:29;;;;;;;4.30;1.25;;;12.70;69.40;;;;;;5021870;28;20029;-82
2024/02/23 12:05:57;;;;;;;3.92;1.30;;;12.40;73.10;;;;;;5045715;28;20502;-82
2024/02/23 12:08:27;;;;;;;2.60;1.00;;;12.30;73.40;;;;;;5021507;28;20056;-85
2024/02/23 12:10:55;;;;;;;2.97;1.25;;;12.00;73.10;;;;;;5047483;28;20061;-86
2024/02/23 12:13:21;;;;;;;5.63;1.10;;;12.90;71.60;;;;;;5044721;28;20227;-86
2024/02/23 12:15:48;;;;;;;2.45;1.10;;;12.60;70.50;;;;;;5041093;28;20007;-86
2024/02/23 12:18:14;;;;;;;4.78;0.95;;;12.40;72.70;;;;;;5060843;28;20042;-85
2024/02/23 12:20:40;;;;;;;2.22;0.80;;;12.10;72.40;;;;;;5066940;28;20041;-86
2024/02/23 12:23:07;;;;;;;10.48;1.52;;;11.80;72.60;;;;;;5062454;28;20112;-85
2024/02/23 12:25:33;;;;;;;3.75;0.93;;;11.10;74.00;;;;;;5011822;28;20080;-86
2024/02/23 12:28:00;;;;;;;4.50;0.90;;;11.00;74.10;;;;;;5010253;28;20026;-85
2024/02/23 12:30:27;;;;;;;2.97;0.95;;;10.90;75.00;;;;;;5046461;28;20018;-85
2024/02/23 12:33:03;;;;;;;1.98;0.77;;;10.70;75.50;;;;;;5021992;28;20026;-86
2024/02/23 12:35:29;;;;;;;2.70;0.90;;;11.30;74.50;;;;;;5021705;28;20514;-86
2024/02/23 12:37:54;;;;;;;3.72;0.98;;;11.50;71.70;;;;;;5015308;28;20022;-86
2024/02/23 12:40:20;;;;;;;1.98;0.98;;;11.60;72.20;;;;;;5018062;28;20226;-86
2024/02/23 12:42:48;;;;;;;1.77;0.82;;;12.00;71.60;;;;;;5023579;28;20018;-86
2024/02/23 12:45:14;;;;;;;3.45;1.00;;;12.10;71.00;;;;;;5011410;28;20416;-86
2024/02/23 12:47:40;;;;;;;2.85;0.82;;;11.80;71.00;;;;;;5011213;28;20033;-86
2024/02/23 12:50:07;;;;;;;2.30;0.98;;;11.50;73.80;;;;;;5026065;28;20029;-86